createdAt,value
2022-09-06T00:00:56.634Z,89.75
2022-09-06T00:01:56.623Z,89.59
2022-09-06T00:02:56.743Z,88.98
2022-09-06T00:03:56.686Z,89.79
2022-09-06T00:04:56.607Z,89.99
2022-09-06T00:05:56.602Z,89.89
2022-09-06T00:06:56.590Z,89.79
2022-09-06T00:07:56.590Z,89.85
2022-09-06T00:08:56.619Z,89.69
2022-09-06T00:09:56.568Z,89.75
2022-09-06T00:11:00.395Z,89.99
2022-09-06T00:11:56.578Z,89.65
2022-09-06T00:12:56.566Z,89.45
2022-09-06T00:13:56.551Z,89.45
2022-09-06T00:14:56.585Z,89.65
2022-09-06T00:15:56.585Z,90.09
2022-09-06T00:16:56.540Z,89.79
2022-09-06T00:17:56.535Z,89.69
2022-09-06T00:18:56.518Z,89.69
2022-09-06T00:19:56.542Z,89.28
2022-09-06T00:20:56.502Z,89.08
2022-09-06T00:21:57.499Z,89.79
2022-09-06T00:22:56.495Z,89.79
2022-09-06T00:23:56.491Z,90.20
2022-09-06T00:24:56.488Z,89.69
2022-09-06T00:25:56.586Z,90.14
2022-09-06T00:26:56.482Z,89.99
2022-09-06T00:27:56.472Z,90.40
2022-09-06T00:28:56.480Z,90.30
2022-09-06T00:29:56.472Z,89.69
2022-09-06T00:30:56.602Z,89.43
2022-09-06T00:31:56.450Z,89.59
2022-09-06T00:32:56.449Z,90.20
2022-09-06T00:33:56.452Z,90.54
2022-09-06T00:34:56.446Z,90.64
2022-09-06T00:35:56.442Z,90.84
2022-09-06T00:36:56.548Z,90.75
2022-09-06T00:37:56.427Z,90.95
2022-09-06T00:38:56.402Z,90.44
2022-09-06T00:39:56.488Z,90.64
2022-09-06T00:40:56.409Z,90.95
2022-09-06T00:41:56.524Z,90.75
2022-09-06T00:42:56.386Z,90.64
2022-09-06T00:43:56.381Z,90.84
2022-09-06T00:44:56.369Z,91.15
2022-09-06T00:45:56.426Z,90.34
2022-09-06T00:46:56.364Z,91.05
2022-09-06T00:47:56.387Z,91.25
2022-09-06T00:48:56.357Z,91.15
2022-09-06T00:49:56.357Z,91.35
2022-09-06T00:50:56.343Z,90.95
2022-09-06T00:51:56.332Z,91.25
2022-09-06T00:52:56.371Z,91.50
2022-09-06T00:53:56.329Z,91.35
2022-09-06T00:54:56.316Z,91.70
2022-09-06T00:55:56.317Z,91.66
2022-09-06T00:56:56.301Z,91.25
2022-09-06T00:57:56.302Z,91.55
2022-09-06T00:58:56.317Z,91.39
2022-09-06T00:59:56.294Z,91.30
2022-09-06T01:00:56.280Z,91.39
2022-09-06T01:01:56.395Z,91.80
2022-09-06T01:02:56.296Z,91.66
2022-09-06T01:03:56.277Z,92.21
2022-09-06T01:04:56.268Z,92.21
2022-09-06T01:05:56.251Z,92.21
2022-09-06T01:06:56.245Z,91.90
2022-09-06T01:07:56.258Z,92.51
2022-09-06T01:08:56.249Z,92.31
2022-09-06T01:09:56.242Z,92.41
2022-09-06T01:10:56.225Z,92.71
2022-09-06T01:11:56.236Z,92.21
2022-09-06T01:12:56.223Z,92.31
2022-09-06T01:13:56.211Z,92.00
2022-09-06T01:14:56.315Z,92.10
2022-09-06T01:15:56.225Z,92.10
2022-09-06T01:16:56.185Z,92.51
2022-09-06T01:17:56.193Z,91.80
2022-09-06T01:18:56.175Z,92.21
2022-09-06T01:19:56.191Z,92.31
2022-09-06T01:20:56.191Z,91.75
2022-09-06T01:21:56.167Z,92.00
2022-09-06T01:22:56.161Z,91.80
2022-09-06T01:23:56.140Z,91.90
2022-09-06T01:24:56.158Z,92.10
2022-09-06T01:25:56.195Z,91.80
2022-09-06T01:26:56.136Z,91.50
2022-09-06T01:27:56.118Z,91.70
2022-09-06T01:28:56.127Z,91.85
2022-09-06T01:29:56.117Z,91.94
2022-09-06T01:30:56.192Z,91.94
2022-09-06T01:31:56.163Z,92.25
2022-09-06T01:32:56.114Z,92.25
2022-09-06T01:33:56.098Z,92.25
2022-09-06T01:34:56.083Z,92.45
2022-09-06T01:35:56.076Z,92.14
2022-09-06T01:37:09.815Z,92.21
2022-09-06T01:37:58.060Z,92.96
2022-09-06T01:38:56.070Z,92.76
2022-09-06T01:39:56.110Z,92.86
2022-09-06T01:40:56.051Z,93.16
2022-09-06T01:41:56.051Z,92.86
2022-09-06T01:42:56.096Z,92.45
2022-09-06T01:43:56.039Z,93.06
2022-09-06T01:44:56.026Z,93.26
2022-09-06T01:45:56.047Z,93.16
2022-09-06T01:46:56.026Z,92.65
2022-09-06T01:47:56.035Z,92.96
2022-09-06T01:48:56.000Z,93.57
2022-09-06T01:49:55.993Z,93.46
2022-09-06T01:50:55.991Z,92.96
2022-09-06T01:51:55.978Z,93.00
2022-09-06T01:52:55.992Z,92.96
2022-09-06T01:53:56.006Z,92.96
2022-09-06T01:54:55.968Z,93.06
2022-09-06T01:55:55.962Z,92.65
2022-09-06T01:56:55.964Z,92.86
2022-09-06T01:57:55.956Z,93.26
2022-09-06T01:58:55.981Z,93.61
2022-09-06T01:59:55.942Z,93.46
2022-09-06T02:00:55.946Z,93.77
2022-09-06T02:01:55.965Z,93.67
2022-09-06T02:02:55.982Z,93.67
2022-09-06T02:03:55.923Z,94.27
2022-09-06T02:04:55.934Z,93.77
2022-09-06T02:05:55.907Z,93.46
2022-09-06T02:06:55.891Z,93.57
2022-09-06T02:07:55.898Z,93.46
2022-09-06T02:08:55.889Z,93.87
2022-09-06T02:09:55.914Z,93.26
2022-09-06T02:10:55.880Z,92.96
2022-09-06T02:11:55.876Z,93.16
2022-09-06T02:12:55.851Z,93.16
2022-09-06T02:13:55.853Z,93.57
2022-09-06T02:14:55.836Z,92.96
2022-09-06T02:15:55.880Z,93.37
2022-09-06T02:16:55.880Z,93.46
2022-09-06T02:17:55.813Z,93.57
2022-09-06T02:18:55.826Z,93.57
2022-09-06T02:19:55.826Z,93.77
2022-09-06T02:20:55.857Z,93.77
2022-09-06T02:21:55.797Z,94.18
2022-09-06T02:22:55.803Z,93.87
2022-09-06T02:23:55.804Z,93.77
2022-09-06T02:24:55.780Z,93.67
2022-09-06T02:25:56.815Z,93.87
2022-09-06T02:26:55.768Z,93.77
2022-09-06T02:27:55.781Z,93.52
2022-09-06T02:28:55.781Z,93.52
2022-09-06T02:29:55.739Z,93.77
2022-09-06T02:30:55.803Z,94.13
2022-09-06T02:31:55.776Z,93.93
2022-09-06T02:32:55.729Z,93.97
2022-09-06T02:33:55.724Z,93.77
2022-09-06T02:34:55.753Z,93.93
2022-09-06T02:35:55.728Z,93.57
2022-09-06T02:36:55.759Z,93.46
2022-09-06T02:37:55.717Z,93.62
2022-09-06T02:38:55.694Z,93.67
2022-09-06T02:39:55.769Z,93.97
2022-09-06T02:40:55.702Z,94.38
2022-09-06T02:41:55.680Z,94.27
2022-09-06T02:42:55.782Z,94.13
2022-09-06T02:43:55.676Z,94.07
2022-09-06T02:44:55.671Z,93.77
2022-09-06T02:45:55.688Z,93.77
2022-09-06T02:46:57.278Z,93.77
2022-09-06T02:47:56.674Z,94.07
2022-09-06T02:48:55.660Z,94.38
2022-09-06T02:49:55.635Z,94.18
2022-09-06T02:50:55.640Z,94.07
2022-09-06T02:51:55.631Z,93.97
2022-09-06T02:52:55.655Z,94.18
2022-09-06T02:53:55.654Z,93.93
2022-09-06T02:54:55.609Z,94.38
2022-09-06T02:55:55.618Z,94.18
2022-09-06T02:56:55.612Z,94.27
2022-09-06T02:57:55.593Z,94.38
2022-09-06T02:58:55.591Z,94.27
2022-09-06T02:59:56.576Z,94.38
2022-09-06T03:00:55.645Z,94.38
2022-09-06T03:01:55.674Z,94.27
2022-09-06T03:02:55.576Z,94.68
2022-09-06T03:03:55.578Z,94.18
2022-09-06T03:04:55.560Z,94.27
2022-09-06T03:05:55.548Z,93.97
2022-09-06T03:06:55.536Z,94.58
2022-09-06T03:07:55.560Z,94.18
2022-09-06T03:08:55.552Z,94.68
2022-09-06T03:09:55.518Z,94.03
2022-09-06T03:10:55.523Z,94.03
2022-09-06T03:11:55.526Z,93.73
2022-09-06T03:12:55.521Z,94.23
2022-09-06T03:13:55.503Z,93.73
2022-09-06T03:14:55.502Z,93.73
2022-09-06T03:15:55.497Z,93.62
2022-09-06T03:16:55.507Z,94.13
2022-09-06T03:17:55.493Z,93.52
2022-09-06T03:18:55.483Z,94.03
2022-09-06T03:19:55.458Z,93.93
2022-09-06T03:20:55.466Z,94.03
2022-09-06T03:21:55.452Z,94.29
2022-09-06T03:22:55.461Z,93.88
2022-09-06T03:23:55.457Z,93.73
2022-09-06T03:24:55.448Z,93.73
2022-09-06T03:25:55.431Z,93.73
2022-09-06T03:26:55.420Z,93.77
2022-09-06T03:27:55.423Z,93.97
2022-09-06T03:28:55.436Z,94.13
2022-09-06T03:29:55.410Z,94.23
2022-09-06T03:30:55.512Z,94.34
2022-09-06T03:31:55.407Z,93.93
2022-09-06T03:32:55.413Z,94.74
2022-09-06T03:33:55.393Z,94.03
2022-09-06T03:34:55.387Z,94.03
2022-09-06T03:35:55.378Z,94.03
2022-09-06T03:36:56.080Z,94.23
2022-09-06T03:37:55.411Z,93.93
2022-09-06T03:38:55.373Z,93.93
2022-09-06T03:39:55.486Z,93.83
2022-09-06T03:40:55.338Z,94.23
2022-09-06T03:41:55.313Z,93.83
2022-09-06T03:42:55.361Z,94.23
2022-09-06T03:43:55.328Z,94.13
2022-09-06T03:44:55.325Z,93.83
2022-09-06T03:45:55.375Z,94.03
2022-09-06T03:46:55.308Z,94.13
2022-09-06T03:47:55.332Z,94.54
2022-09-06T03:48:55.297Z,94.54
2022-09-06T03:49:55.303Z,94.43
2022-09-06T03:50:55.276Z,94.23
2022-09-06T03:51:55.278Z,94.54
2022-09-06T03:52:55.289Z,93.93
2022-09-06T03:53:55.284Z,94.54
2022-09-06T03:54:55.269Z,94.34
2022-09-06T03:55:55.259Z,94.78
2022-09-06T03:56:55.245Z,94.74
2022-09-06T03:57:55.268Z,94.43
2022-09-06T03:58:55.285Z,94.84
2022-09-06T03:59:55.224Z,95.04
2022-09-06T04:00:55.246Z,95.14
2022-09-06T04:01:55.276Z,95.35
2022-09-06T04:02:58.588Z,95.45
2022-09-06T04:03:56.240Z,95.25
2022-09-06T04:04:55.208Z,94.84
2022-09-06T04:05:55.186Z,95.04
2022-09-06T04:06:55.198Z,94.54
2022-09-06T04:07:55.196Z,94.64
2022-09-06T04:08:55.202Z,95.35
2022-09-06T04:09:55.155Z,94.84
2022-09-06T04:10:55.159Z,94.94
2022-09-06T04:11:55.156Z,95.45
2022-09-06T04:12:55.193Z,95.45
2022-09-06T04:13:55.170Z,95.45
2022-09-06T04:14:55.143Z,95.45
2022-09-06T04:15:55.132Z,95.25
2022-09-06T04:16:55.208Z,95.14
2022-09-06T04:17:55.118Z,94.84
2022-09-06T04:18:55.145Z,96.36
2022-09-06T04:19:55.116Z,95.04
2022-09-06T04:20:55.115Z,95.86
2022-09-06T04:21:55.093Z,95.55
2022-09-06T04:22:55.099Z,94.94
2022-09-06T04:23:55.085Z,95.65
2022-09-06T04:24:55.097Z,95.25
2022-09-06T04:25:55.068Z,95.75
2022-09-06T04:26:55.068Z,96.26
2022-09-06T04:27:55.037Z,96.06
2022-09-06T04:28:56.057Z,96.15
2022-09-06T04:29:55.101Z,96.51
2022-09-06T04:30:55.073Z,96.31
2022-09-06T04:31:56.023Z,96.01
2022-09-06T04:32:55.041Z,96.01
2022-09-06T04:33:55.021Z,95.81
2022-09-06T04:34:55.035Z,95.71
2022-09-06T04:35:55.049Z,95.61
2022-09-06T04:36:55.015Z,95.61
2022-09-06T04:37:55.012Z,95.61
2022-09-06T04:38:55.012Z,95.71
2022-09-06T04:39:55.039Z,95.81
2022-09-06T04:40:55.155Z,95.76
2022-09-06T04:41:54.975Z,95.56
2022-09-06T04:42:54.990Z,95.46
2022-09-06T04:43:54.965Z,95.46
2022-09-06T04:44:54.973Z,96.11
2022-09-06T04:45:54.990Z,96.01
2022-09-06T04:46:56.201Z,96.47
2022-09-06T04:47:54.950Z,96.17
2022-09-06T04:48:54.933Z,95.56
2022-09-06T04:49:54.930Z,95.91
2022-09-06T04:50:54.970Z,95.66
2022-09-06T04:51:54.957Z,95.66
2022-09-06T04:52:54.903Z,95.76
2022-09-06T04:53:54.907Z,95.06
2022-09-06T04:54:54.910Z,95.42
2022-09-06T04:55:54.909Z,95.56
2022-09-06T04:56:54.901Z,95.92
2022-09-06T04:57:54.993Z,95.66
2022-09-06T04:58:54.882Z,95.46
2022-09-06T04:59:54.887Z,95.76
2022-09-06T05:00:54.943Z,95.56
2022-09-06T05:01:54.944Z,95.97
2022-09-06T05:02:54.886Z,96.27
2022-09-06T05:04:27.391Z,96.31
2022-09-06T05:04:54.846Z,96.51
2022-09-06T05:05:54.839Z,96.62
2022-09-06T05:06:54.848Z,97.53
2022-09-06T05:07:54.849Z,97.23
2022-09-06T05:08:54.938Z,97.43
2022-09-06T05:09:54.818Z,97.23
2022-09-06T05:10:54.813Z,96.82
2022-09-06T05:11:54.798Z,96.92
2022-09-06T05:12:54.804Z,96.62
2022-09-06T05:13:54.903Z,96.27
2022-09-06T05:14:54.796Z,96.37
2022-09-06T05:15:54.790Z,96.67
2022-09-06T05:16:54.872Z,96.37
2022-09-06T05:17:54.775Z,96.67
2022-09-06T05:18:54.778Z,96.27
2022-09-06T05:19:54.873Z,96.47
2022-09-06T05:20:54.751Z,95.97
2022-09-06T05:21:54.752Z,96.27
2022-09-06T05:22:54.734Z,96.47
2022-09-06T05:23:58.544Z,96.57
2022-09-06T05:24:54.766Z,96.27
2022-09-06T05:25:54.728Z,96.67
2022-09-06T05:26:54.713Z,96.17
2022-09-06T05:27:54.710Z,95.97
2022-09-06T05:28:54.734Z,96.22
2022-09-06T05:29:54.686Z,96.73
2022-09-06T05:30:54.858Z,95.82
2022-09-06T05:31:54.735Z,95.86
2022-09-06T05:32:54.689Z,95.92
2022-09-06T05:33:54.660Z,95.82
2022-09-06T05:34:54.654Z,95.51
2022-09-06T05:35:55.770Z,95.11
2022-09-06T05:36:54.652Z,95.57
2022-09-06T05:37:54.639Z,95.82
2022-09-06T05:38:54.655Z,95.67
2022-09-06T05:39:54.665Z,95.57
2022-09-06T05:40:54.633Z,95.37
2022-09-06T05:41:54.810Z,94.56
2022-09-06T05:42:54.609Z,94.15
2022-09-06T05:43:54.594Z,94.21
2022-09-06T05:44:54.605Z,94.46
2022-09-06T05:45:54.732Z,94.36
2022-09-06T05:46:54.640Z,94.01
2022-09-06T05:47:54.592Z,94.31
2022-09-06T05:48:54.591Z,94.11
2022-09-06T05:49:54.575Z,94.01
2022-09-06T05:50:54.574Z,94.31
2022-09-06T05:51:54.573Z,93.71
2022-09-06T05:52:54.573Z,94.21
2022-09-06T05:53:54.552Z,93.91
2022-09-06T05:54:54.569Z,94.01
2022-09-06T05:55:54.574Z,93.76
2022-09-06T05:56:54.511Z,93.26
2022-09-06T05:57:55.554Z,93.16
2022-09-06T05:58:54.518Z,93.36
2022-09-06T05:59:54.514Z,93.66
2022-09-06T06:00:54.592Z,93.76
2022-09-06T06:01:54.568Z,93.56
2022-09-06T06:02:54.521Z,93.46
2022-09-06T06:03:54.527Z,93.36
2022-09-06T06:04:54.575Z,93.16
2022-09-06T06:05:54.482Z,92.96
2022-09-06T06:06:54.490Z,92.21
2022-09-06T06:07:54.485Z,92.50
2022-09-06T06:08:54.523Z,92.41
2022-09-06T06:09:54.460Z,92.26
2022-09-06T06:10:54.478Z,92.41
2022-09-06T06:11:54.462Z,91.70
2022-09-06T06:12:54.474Z,92.50
2022-09-06T06:13:54.499Z,92.36
2022-09-06T06:14:54.440Z,92.41
2022-09-06T06:15:54.430Z,92.46
2022-09-06T06:16:54.457Z,92.26
2022-09-06T06:17:54.428Z,92.16
2022-09-06T06:18:54.439Z,92.57
2022-09-06T06:19:54.412Z,92.12
2022-09-06T06:20:54.402Z,91.31
2022-09-06T06:21:54.404Z,91.41
2022-09-06T06:22:54.451Z,91.01
2022-09-06T06:23:54.428Z,90.97
2022-09-06T06:24:54.368Z,90.81
2022-09-06T06:25:54.367Z,90.16
2022-09-06T06:26:54.369Z,90.36
2022-09-06T06:27:54.378Z,90.26
2022-09-06T06:28:54.367Z,90.77
2022-09-06T06:29:54.346Z,90.52
2022-09-06T06:30:54.909Z,91.27
2022-09-06T06:31:54.443Z,89.86
2022-09-06T06:32:54.368Z,90.26
2022-09-06T06:33:54.333Z,90.42
2022-09-06T06:34:54.335Z,90.16
2022-09-06T06:35:54.350Z,89.41
2022-09-06T06:36:54.305Z,89.71
2022-09-06T06:37:54.319Z,89.81
2022-09-06T06:38:54.308Z,88.96
2022-09-06T06:39:54.344Z,89.51
2022-09-06T06:41:00.105Z,89.01
2022-09-06T06:41:56.273Z,90.01
2022-09-06T06:42:54.273Z,90.32
2022-09-06T06:43:54.287Z,89.81
2022-09-06T06:44:54.273Z,90.11
2022-09-06T06:45:54.282Z,89.91
2022-09-06T06:46:54.242Z,89.47
2022-09-06T06:47:54.243Z,89.57
2022-09-06T06:48:55.208Z,89.21
2022-09-06T06:49:54.250Z,89.77
2022-09-06T06:50:54.228Z,90.28
2022-09-06T06:51:54.232Z,90.48
2022-09-06T06:52:54.220Z,89.97
2022-09-06T06:53:54.224Z,90.07
2022-09-06T06:54:54.197Z,89.97
2022-09-06T06:55:54.194Z,90.07
2022-09-06T06:56:54.187Z,89.53
2022-09-06T06:57:54.190Z,89.57
2022-09-06T06:58:54.179Z,89.43
2022-09-06T06:59:54.165Z,89.43
2022-09-06T07:00:54.231Z,89.63
2022-09-06T07:01:54.249Z,89.43
2022-09-06T07:02:54.148Z,89.03
2022-09-06T07:03:54.300Z,89.32
2022-09-06T07:04:54.132Z,88.72
2022-09-06T07:07:55.122Z,89.48
2022-09-06T07:08:54.152Z,88.43
2022-09-06T07:10:56.085Z,88.03
2022-09-06T07:11:54.095Z,88.43
2022-09-06T07:12:54.094Z,88.13
2022-09-06T07:13:54.092Z,87.79
2022-09-06T07:14:54.654Z,87.99
2022-09-06T07:15:54.137Z,87.49
2022-09-06T07:16:54.110Z,87.89
2022-09-06T07:17:54.063Z,87.39
2022-09-06T07:18:54.069Z,87.19
2022-09-06T07:21:55.057Z,87.08
2022-09-06T07:22:54.056Z,87.49
2022-09-06T07:24:09.798Z,87.85
2022-09-06T07:24:56.138Z,87.59
2022-09-06T07:25:54.000Z,87.04
2022-09-06T07:27:54.985Z,86.74
2022-09-06T07:28:53.978Z,87.35
2022-09-06T07:29:53.970Z,87.45
2022-09-06T07:30:54.081Z,87.15
2022-09-06T07:32:54.956Z,86.50
2022-09-06T07:33:55.768Z,85.96
2022-09-06T07:34:53.954Z,86.36
2022-09-06T07:35:54.034Z,85.16
2022-09-06T07:36:53.924Z,84.11
2022-09-06T07:37:53.929Z,84.27
2022-09-06T07:38:54.539Z,82.82
2022-09-06T07:39:54.996Z,81.17
2022-09-06T07:40:53.920Z,76.01
2022-09-06T07:41:53.910Z,71.09
2022-09-06T07:42:53.898Z,70.42
2022-09-06T07:43:53.898Z,70.92
2022-09-06T07:44:53.903Z,71.95
2022-09-06T07:45:53.900Z,72.19
2022-09-06T07:46:54.167Z,71.15
2022-09-06T07:48:53.922Z,72.25
2022-09-06T07:50:58.962Z,73.22
2022-09-06T07:51:53.837Z,71.98
2022-09-06T07:53:12.686Z,71.95
2022-09-06T07:54:07.436Z,70.79
2022-09-06T07:54:54.861Z,71.05
2022-09-06T07:55:53.819Z,69.26
2022-09-06T07:56:53.796Z,68.76
2022-09-06T07:57:53.815Z,67.44
2022-09-06T07:58:53.890Z,65.62
2022-09-06T07:59:53.793Z,63.68
2022-09-06T08:00:53.833Z,63.51
2022-09-06T08:01:53.832Z,62.65
2022-09-06T08:02:53.806Z,62.21
2022-09-06T08:03:53.873Z,63.51
2022-09-06T08:04:53.757Z,61.56
2022-09-06T08:06:09.717Z,60.99
2022-09-06T08:09:54.743Z,61.89
2022-09-06T08:10:53.733Z,60.80
2022-09-06T08:11:53.728Z,60.17
2022-09-06T08:12:53.722Z,60.80
2022-09-06T08:13:53.716Z,60.28
2022-09-06T08:14:53.739Z,61.58
2022-09-06T08:15:53.705Z,61.96
2022-09-06T08:16:53.711Z,64.28
2022-09-06T08:17:53.695Z,66.24
2022-09-06T08:18:53.683Z,66.20
2022-09-06T08:19:53.805Z,65.64
2022-09-06T08:20:53.711Z,65.84
2022-09-06T08:21:53.671Z,66.27
2022-09-06T08:22:53.662Z,67.17
2022-09-06T08:23:53.671Z,65.50
2022-09-06T08:24:53.658Z,67.03
2022-09-06T08:25:53.813Z,67.43
2022-09-06T08:26:53.640Z,68.66
2022-09-06T08:27:53.672Z,69.26
2022-09-06T08:28:53.667Z,69.09
2022-09-06T08:29:53.623Z,70.03
2022-09-06T08:30:53.696Z,70.92
2022-09-06T08:31:53.650Z,71.12
2022-09-06T08:32:53.613Z,70.76
2022-09-06T08:33:53.596Z,70.92
2022-09-06T08:34:53.598Z,71.22
2022-09-06T08:35:53.598Z,70.83
2022-09-06T08:36:53.721Z,70.39
2022-09-06T08:37:53.583Z,70.49
2022-09-06T08:38:53.568Z,70.59
2022-09-06T08:39:53.613Z,69.26
2022-09-06T08:40:53.553Z,68.03
2022-09-06T08:41:53.704Z,67.43
2022-09-06T08:42:53.555Z,68.16
2022-09-06T08:44:56.558Z,70.09
2022-09-06T08:45:55.897Z,69.79
2022-09-06T08:46:54.692Z,70.42
2022-09-06T08:47:53.534Z,69.89
2022-09-06T08:48:53.510Z,69.69
2022-09-06T08:49:53.528Z,69.56
2022-09-06T08:50:53.512Z,69.23
2022-09-06T08:51:53.500Z,69.32
2022-09-06T08:53:19.235Z,69.20
2022-09-06T08:53:55.511Z,68.99
2022-09-06T08:54:53.488Z,67.66
2022-09-06T08:55:53.474Z,66.80
2022-09-06T08:56:53.492Z,67.36
2022-09-06T08:57:53.586Z,65.41
2022-09-06T08:58:53.490Z,65.48
2022-09-06T08:59:53.511Z,63.82
2022-09-06T09:00:53.525Z,62.74
2022-09-06T09:01:53.482Z,60.70
2022-09-06T09:02:53.438Z,58.48
2022-09-06T09:03:53.483Z,58.48
2022-09-06T09:04:53.427Z,57.37
2022-09-06T09:05:53.436Z,57.67
2022-09-06T09:06:53.421Z,57.76
2022-09-06T09:07:53.411Z,57.56
2022-09-06T09:08:53.538Z,54.75
2022-09-06T09:09:53.395Z,51.00
2022-09-06T09:10:53.387Z,50.12
2022-09-06T09:11:53.408Z,47.32
2022-09-06T09:12:53.378Z,47.71
2022-09-06T09:13:55.671Z,47.37
2022-09-06T09:14:54.473Z,45.44
2022-09-06T09:15:53.441Z,43.93
2022-09-06T09:16:53.360Z,44.19
2022-09-06T09:17:53.361Z,46.31
2022-09-06T09:18:53.331Z,47.37
2022-09-06T09:19:53.353Z,45.49
2022-09-06T09:20:53.370Z,46.91
2022-09-06T09:21:53.333Z,42.78
2022-09-06T09:22:53.309Z,44.32
2022-09-06T09:23:53.306Z,43.93
2022-09-06T09:24:53.317Z,44.20
2022-09-06T09:25:53.450Z,43.73
2022-09-06T09:26:53.301Z,43.90
2022-09-06T09:27:53.305Z,44.58
2022-09-06T09:28:53.292Z,45.83
2022-09-06T09:30:55.610Z,44.20
2022-09-06T09:31:53.934Z,42.58
2022-09-06T09:32:53.281Z,41.56
2022-09-06T09:33:53.302Z,41.85
2022-09-06T09:34:53.258Z,40.73
2022-09-06T09:35:53.247Z,39.39
2022-09-06T09:37:57.444Z,39.76
2022-09-06T09:38:54.227Z,40.76
2022-09-06T09:39:53.292Z,39.55
2022-09-06T09:40:53.257Z,39.59
2022-09-06T09:41:53.366Z,39.59
2022-09-06T09:42:53.198Z,40.14
2022-09-06T09:43:53.207Z,42.23
2022-09-06T09:44:53.217Z,42.55
2022-09-06T09:45:53.214Z,42.60
2022-09-06T09:46:53.249Z,43.09
2022-09-06T09:47:53.248Z,43.21
2022-09-06T09:48:53.192Z,42.99
2022-09-06T09:49:53.197Z,42.35
2022-09-06T09:50:53.178Z,41.33
2022-09-06T09:51:53.174Z,41.64
2022-09-06T09:52:53.449Z,38.43
2022-09-06T09:53:53.161Z,38.79
2022-09-06T09:54:53.178Z,38.87
2022-09-06T09:55:53.205Z,38.71
2022-09-06T09:56:53.175Z,36.88
2022-09-06T09:57:53.144Z,35.89
2022-09-06T09:58:53.172Z,35.17
2022-09-06T09:59:53.149Z,34.36
2022-09-06T10:00:53.189Z,35.94
2022-09-06T10:01:53.126Z,37.15
2022-09-06T10:02:53.141Z,37.77
2022-09-06T10:04:54.161Z,39.86
2022-09-06T10:05:56.294Z,40.80
2022-09-06T10:07:10.134Z,39.16
2022-09-06T10:07:55.174Z,39.22
2022-09-06T10:08:53.114Z,39.70
2022-09-06T10:09:53.215Z,38.30
2022-09-06T10:10:53.091Z,38.30
2022-09-06T10:11:53.086Z,38.22
2022-09-06T10:12:53.082Z,38.95
2022-09-06T10:13:53.081Z,35.49
2022-09-06T10:14:53.070Z,35.57
2022-09-06T10:15:53.097Z,36.24
2022-09-06T10:16:53.066Z,36.26
2022-09-06T10:17:53.054Z,36.28
2022-09-06T10:18:53.045Z,37.85
2022-09-06T10:19:53.041Z,37.27
2022-09-06T10:20:53.104Z,38.62
2022-09-06T10:21:53.039Z,37.12
2022-09-06T10:22:53.043Z,37.00
2022-09-06T10:24:54.050Z,38.11
2022-09-06T10:25:53.172Z,36.83
2022-09-06T10:26:53.010Z,36.52
2022-09-06T10:28:10.505Z,35.96
2022-09-06T10:28:55.030Z,36.44
2022-09-06T10:29:53.129Z,35.06
2022-09-06T10:30:53.100Z,35.96
2022-09-06T10:31:53.121Z,36.08
2022-09-06T10:32:54.013Z,36.96
2022-09-06T10:33:53.010Z,36.24
2022-09-06T10:34:52.996Z,38.48
2022-09-06T10:35:52.977Z,37.18
2022-09-06T10:36:53.087Z,36.49
2022-09-06T10:37:52.996Z,37.13
2022-09-06T10:38:52.979Z,37.93
2022-09-06T10:39:52.998Z,38.14
2022-09-06T10:40:52.975Z,37.75
2022-09-06T10:41:52.996Z,37.81
2022-09-06T10:42:52.972Z,37.52
2022-09-06T10:43:52.945Z,37.68
2022-09-06T10:44:52.952Z,36.20
2022-09-06T10:45:52.967Z,37.00
2022-09-06T10:46:53.031Z,35.85
2022-09-06T10:47:52.951Z,36.51
2022-09-06T10:48:52.942Z,35.73
2022-09-06T10:49:52.925Z,38.14
2022-09-06T10:50:52.922Z,37.07
2022-09-06T10:51:52.904Z,36.08
2022-09-06T10:52:52.902Z,36.45
2022-09-06T10:53:52.933Z,36.98
2022-09-06T10:54:52.910Z,37.29
2022-09-06T10:55:52.899Z,35.84
2022-09-06T10:56:52.894Z,36.73
2022-09-06T10:59:54.873Z,37.98
2022-09-06T11:00:52.862Z,38.49
2022-09-06T11:01:53.008Z,38.59
2022-09-06T11:03:56.685Z,39.00
2022-09-06T11:05:54.832Z,39.01
2022-09-06T11:06:52.830Z,39.92
2022-09-06T11:08:57.811Z,40.48
2022-09-06T11:09:52.931Z,39.51
2022-09-06T11:10:52.793Z,38.12
2022-09-06T11:11:52.862Z,38.12
2022-09-06T11:12:52.807Z,36.43
2022-09-06T11:13:52.794Z,38.20
2022-09-06T11:14:52.773Z,36.74
2022-09-06T11:15:52.881Z,36.94
2022-09-06T11:16:52.792Z,37.15
2022-09-06T11:17:52.775Z,38.07
2022-09-06T11:18:52.787Z,39.06
2022-09-06T11:19:52.770Z,40.62
2022-09-06T11:20:52.877Z,38.76
2022-09-06T11:21:52.756Z,38.78
2022-09-06T11:22:52.743Z,39.88
2022-09-06T11:23:52.750Z,40.45
2022-09-06T11:24:52.751Z,40.37
2022-09-06T11:25:52.757Z,41.33
2022-09-06T11:26:52.786Z,40.45
2022-09-06T11:27:57.345Z,40.33
2022-09-06T11:28:53.709Z,39.82
2022-09-06T11:29:52.753Z,39.53
2022-09-06T11:30:52.754Z,41.21
2022-09-06T11:32:52.692Z,40.09
2022-09-06T11:33:52.691Z,39.90
2022-09-06T11:34:52.684Z,37.73
2022-09-06T11:35:52.685Z,38.41
2022-09-06T11:36:52.679Z,38.60
2022-09-06T11:37:52.758Z,39.49
2022-09-06T11:38:52.667Z,39.00
2022-09-06T11:40:52.686Z,38.92
2022-09-06T11:41:52.647Z,39.51
2022-09-06T11:42:52.702Z,38.90
2022-09-06T11:43:52.638Z,38.41
2022-09-06T11:44:52.655Z,39.59
2022-09-06T11:45:52.645Z,37.92
2022-09-06T11:46:52.684Z,38.78
2022-09-06T11:47:53.717Z,38.59
2022-09-06T11:48:52.615Z,38.82
2022-09-06T11:49:52.609Z,39.23
2022-09-06T11:50:52.650Z,40.35
2022-09-06T11:51:52.624Z,39.86
2022-09-06T11:52:52.636Z,40.92
2022-09-06T11:53:52.640Z,42.29
2022-09-06T11:54:52.573Z,41.09
2022-09-06T11:55:52.572Z,40.29
2022-09-06T11:56:52.577Z,39.29
2022-09-06T11:57:52.585Z,37.82
2022-09-06T11:58:52.679Z,37.41
2022-09-06T11:59:52.601Z,38.49
2022-09-06T12:00:52.561Z,38.00
2022-09-06T12:01:52.552Z,37.71
2022-09-06T12:02:53.264Z,38.18
2022-09-06T12:04:08.767Z,39.04
2022-09-06T12:04:57.186Z,38.16
2022-09-06T12:05:52.561Z,37.77
2022-09-06T12:06:52.542Z,38.94
2022-09-06T12:07:52.534Z,38.96
2022-09-06T12:08:52.534Z,37.69
2022-09-06T12:09:52.505Z,38.28
2022-09-06T12:10:52.519Z,38.20
2022-09-06T12:11:52.497Z,38.98
2022-09-06T12:12:52.667Z,39.19
2022-09-06T12:13:52.486Z,38.88
2022-09-06T12:14:52.489Z,38.02
2022-09-06T12:15:52.556Z,38.62
2022-09-06T12:16:52.479Z,39.70
2022-09-06T12:17:52.465Z,39.03
2022-09-06T12:18:52.469Z,40.53
2022-09-06T12:19:52.453Z,39.86
2022-09-06T12:20:52.453Z,41.03
2022-09-06T12:21:52.533Z,40.92
2022-09-06T12:22:52.437Z,41.29
2022-09-06T12:23:52.446Z,40.19
2022-09-06T12:24:52.432Z,39.88
2022-09-06T12:25:52.445Z,38.21
2022-09-06T12:26:55.661Z,38.90
2022-09-06T12:27:53.430Z,39.01
2022-09-06T12:28:52.460Z,38.53
2022-09-06T12:29:52.409Z,38.82
2022-09-06T12:30:52.426Z,40.00
2022-09-06T12:31:52.427Z,38.64
2022-09-06T12:32:52.494Z,41.51
2022-09-06T12:33:52.419Z,40.23
2022-09-06T12:36:53.369Z,41.41
2022-09-06T12:37:52.387Z,40.68
2022-09-06T12:38:52.369Z,38.62
2022-09-06T12:39:52.409Z,39.69
2022-09-06T12:40:52.364Z,39.96
2022-09-06T12:41:52.353Z,38.96
2022-09-06T12:42:52.357Z,37.59
2022-09-06T12:43:52.465Z,37.96
2022-09-06T12:44:52.324Z,37.35
2022-09-06T12:45:52.316Z,38.92
2022-09-06T12:46:52.370Z,37.63
2022-09-06T12:47:52.317Z,36.94
2022-09-06T12:48:52.347Z,36.87
2022-09-06T12:49:52.296Z,37.87
2022-09-06T12:50:52.306Z,38.06
2022-09-06T12:51:52.292Z,38.57
2022-09-06T12:52:52.289Z,38.20
2022-09-06T12:53:52.289Z,38.60
2022-09-06T12:54:52.338Z,38.82
2022-09-06T12:55:52.281Z,38.13
2022-09-06T12:56:52.278Z,39.78
2022-09-06T12:57:52.280Z,38.29
2022-09-06T12:58:52.261Z,38.60
2022-09-06T12:59:52.275Z,38.70
2022-09-06T13:00:52.250Z,38.82
2022-09-06T13:01:52.453Z,38.90
2022-09-06T13:02:52.417Z,38.29
2022-09-06T13:03:52.231Z,37.10
2022-09-06T13:04:52.245Z,37.87
2022-09-06T13:05:52.684Z,36.40
2022-09-06T13:06:52.246Z,37.37
2022-09-06T13:07:52.220Z,35.11
2022-09-06T13:08:52.226Z,34.13
2022-09-06T13:09:52.211Z,34.01
2022-09-06T13:10:52.227Z,35.87
2022-09-06T13:11:52.232Z,34.19
2022-09-06T13:12:52.188Z,35.68
2022-09-06T13:13:52.210Z,35.09
2022-09-06T13:14:52.170Z,35.38
2022-09-06T13:15:52.268Z,35.40
2022-09-06T13:16:52.205Z,35.69
2022-09-06T13:17:52.165Z,34.42
2022-09-06T13:18:53.164Z,34.80